sensor_id;sensor_type;location;lat;lon;timestamp;temperature;humidity
19870;DHT22;10097;50.862;4.696;2023-05-20T00:00:06;13.60;99.90
19870;DHT22;10097;50.862;4.696;2023-05-20T00:02:32;13.60;99.90
19870;DHT22;10097;50.862;4.696;2023-05-20T00:04:57;13.40;99.90
19870;DHT22;10097;50.862;4.696;2023-05-20T00:07:23;13.50;99.90
19870;DHT22;10097;50.862;4.696;2023-05-20T00:09:49;13.40;99.90
19870;DHT22;10097;50.862;4.696;2023-05-20T00:12:15;13.50;99.90
19870;DHT22;10097;50.862;4.696;2023-05-20T00:14:40;13.50;99.90
19870;DHT22;10097;50.862;4.696;2023-05-20T00:17:06;13.50;99.90
19870;DHT22;10097;50.862;4.696;2023-05-20T00:19:31;13.50;99.90
19870;DHT22;10097;50.862;4.696;2023-05-20T00:21:57;13.60;99.90
19870;DHT22;10097;50.862;4.696;2023-05-20T00:24:24;13.60;99.90
19870;DHT22;10097;50.862;4.696;2023-05-20T00:26:49;13.60;99.90
19870;DHT22;10097;50.862;4.696;2023-05-20T00:29:15;13.50;99.90
19870;DHT22;10097;50.862;4.696;2023-05-20T00:31:41;13.50;99.90
19870;DHT22;10097;50.862;4.696;2023-05-20T00:34:07;13.50;99.90
19870;DHT22;10097;50.862;4.696;2023-05-20T00:36:33;13.50;99.90
19870;DHT22;10097;50.862;4.696;2023-05-20T00:38:59;13.50;99.90
19870;DHT22;10097;50.862;4.696;2023-05-20T00:41:25;13.60;99.90
19870;DHT22;10097;50.862;4.696;2023-05-20T00:43:54;13.60;99.90
19870;DHT22;10097;50.862;4.696;2023-05-20T00:46:21;13.60;99.90
19870;DHT22;10097;50.862;4.696;2023-05-20T00:48:48;13.50;99.90
19870;DHT22;10097;50.862;4.696;2023-05-20T00:51:14;13.40;99.90
19870;DHT22;10097;50.862;4.696;2023-05-20T00:53:40;13.40;99.90
19870;DHT22;10097;50.862;4.696;2023-05-20T00:56:07;13.40;99.90
19870;DHT22;10097;50.862;4.696;2023-05-20T00:58:37;13.40;99.90
19870;DHT22;10097;50.862;4.696;2023-05-20T01:01:03;13.30;99.90
19870;DHT22;10097;50.862;4.696;2023-05-20T01:03:29;13.30;99.90
19870;DHT22;10097;50.862;4.696;2023-05-20T01:05:55;13.30;99.90
19870;DHT22;10097;50.862;4.696;2023-05-20T01:08:22;13.20;99.90
19870;DHT22;10097;50.862;4.696;2023-05-20T01:10:53;13.30;99.90
19870;DHT22;10097;50.862;4.696;2023-05-20T01:13:23;13.30;99.90
19870;DHT22;10097;50.862;4.696;2023-05-20T01:15:52;13.30;99.90
19870;DHT22;10097;50.862;4.696;2023-05-20T01:18:20;13.40;99.90
19870;DHT22;10097;50.862;4.696;2023-05-20T01:20:53;13.40;99.90
19870;DHT22;10097;50.862;4.696;2023-05-20T01:23:19;13.30;99.90
19870;DHT22;10097;50.862;4.696;2023-05-20T01:25:46;13.40;99.90
19870;DHT22;10097;50.862;4.696;2023-05-20T01:28:11;13.40;99.90
19870;DHT22;10097;50.862;4.696;2023-05-20T01:30:46;13.40;99.90
19870;DHT22;10097;50.862;4.696;2023-05-20T01:33:14;13.40;99.90
19870;DHT22;10097;50.862;4.696;2023-05-20T01:35:41;13.40;99.90
19870;DHT22;10097;50.862;4.696;2023-05-20T01:38:07;13.40;99.90
19870;DHT22;10097;50.862;4.696;2023-05-20T01:40:33;13.40;99.90
19870;DHT22;10097;50.862;4.696;2023-05-20T01:43:01;13.40;99.90
19870;DHT22;10097;50.862;4.696;2023-05-20T01:45:27;13.40;99.90
19870;DHT22;10097;50.862;4.696;2023-05-20T01:47:53;13.30;99.90
19870;DHT22;10097;50.862;4.696;2023-05-20T01:50:18;13.30;99.90
19870;DHT22;10097;50.862;4.696;2023-05-20T01:52:44;13.40;99.90
19870;DHT22;10097;50.862;4.696;2023-05-20T01:55:10;13.30;99.90
19870;DHT22;10097;50.862;4.696;2023-05-20T01:57:35;13.30;99.90
19870;DHT22;10097;50.862;4.696;2023-05-20T02:00:01;13.30;99.90
19870;DHT22;10097;50.862;4.696;2023-05-20T02:02:27;13.30;99.90
19870;DHT22;10097;50.862;4.696;2023-05-20T02:04:53;13.20;99.90
19870;DHT22;10097;50.862;4.696;2023-05-20T02:07:18;13.20;99.90
19870;DHT22;10097;50.862;4.696;2023-05-20T02:09:44;13.20;99.90
19870;DHT22;10097;50.862;4.696;2023-05-20T02:12:10;13.20;99.90
19870;DHT22;10097;50.862;4.696;2023-05-20T02:14:46;13.10;99.90
19870;DHT22;10097;50.862;4.696;2023-05-20T02:17:12;13.00;99.90
19870;DHT22;10097;50.862;4.696;2023-05-20T02:19:44;13.00;99.90
19870;DHT22;10097;50.862;4.696;2023-05-20T02:22:10;13.00;99.90
19870;DHT22;10097;50.862;4.696;2023-05-20T02:24:36;13.00;99.90
19870;DHT22;10097;50.862;4.696;2023-05-20T02:27:01;12.80;99.90
19870;DHT22;10097;50.862;4.696;2023-05-20T02:29:29;12.70;99.90
19870;DHT22;10097;50.862;4.696;2023-05-20T02:31:55;12.70;99.90
19870;DHT22;10097;50.862;4.696;2023-05-20T02:34:22;12.70;99.90
19870;DHT22;10097;50.862;4.696;2023-05-20T02:36:48;12.70;99.90
19870;DHT22;10097;50.862;4.696;2023-05-20T02:39:13;12.60;99.90
19870;DHT22;10097;50.862;4.696;2023-05-20T02:41:39;12.60;99.90
19870;DHT22;10097;50.862;4.696;2023-05-20T02:44:05;12.50;99.90
19870;DHT22;10097;50.862;4.696;2023-05-20T02:46:31;12.50;99.90
19870;DHT22;10097;50.862;4.696;2023-05-20T02:48:57;12.40;99.90
19870;DHT22;10097;50.862;4.696;2023-05-20T02:51:24;12.40;99.90
19870;DHT22;10097;50.862;4.696;2023-05-20T02:53:50;12.40;99.90
19870;DHT22;10097;50.862;4.696;2023-05-20T02:56:15;12.40;99.90
19870;DHT22;10097;50.862;4.696;2023-05-20T02:58:46;12.30;99.90
19870;DHT22;10097;50.862;4.696;2023-05-20T03:01:12;12.40;99.90
19870;DHT22;10097;50.862;4.696;2023-05-20T03:03:37;12.30;99.90
19870;DHT22;10097;50.862;4.696;2023-05-20T03:06:05;12.40;99.90
19870;DHT22;10097;50.862;4.696;2023-05-20T03:08:31;12.30;99.90
19870;DHT22;10097;50.862;4.696;2023-05-20T03:10:59;12.20;99.90
19870;DHT22;10097;50.862;4.696;2023-05-20T03:13:25;12.20;99.90
19870;DHT22;10097;50.862;4.696;2023-05-20T03:15:51;12.20;99.90
19870;DHT22;10097;50.862;4.696;2023-05-20T03:18:18;12.00;99.90
19870;DHT22;10097;50.862;4.696;2023-05-20T03:20:45;12.10;99.90
19870;DHT22;10097;50.862;4.696;2023-05-20T03:23:11;12.10;99.90
19870;DHT22;10097;50.862;4.696;2023-05-20T03:25:37;12.00;99.90
19870;DHT22;10097;50.862;4.696;2023-05-20T03:28:05;12.00;99.90
19870;DHT22;10097;50.862;4.696;2023-05-20T03:30:31;12.00;99.90
19870;DHT22;10097;50.862;4.696;2023-05-20T03:32:57;12.10;99.90
19870;DHT22;10097;50.862;4.696;2023-05-20T03:35:24;12.00;99.90
19870;DHT22;10097;50.862;4.696;2023-05-20T03:37:49;12.00;99.90
19870;DHT22;10097;50.862;4.696;2023-05-20T03:40:18;11.90;99.90
19870;DHT22;10097;50.862;4.696;2023-05-20T03:42:47;11.90;99.90
19870;DHT22;10097;50.862;4.696;2023-05-20T03:45:14;11.80;99.90
19870;DHT22;10097;50.862;4.696;2023-05-20T03:47:39;11.80;99.90
19870;DHT22;10097;50.862;4.696;2023-05-20T03:50:05;11.70;99.90
19870;DHT22;10097;50.862;4.696;2023-05-20T03:52:32;11.60;99.90
19870;DHT22;10097;50.862;4.696;2023-05-20T03:54:57;11.60;99.90
19870;DHT22;10097;50.862;4.696;2023-05-20T03:57:23;11.50;99.90
19870;DHT22;10097;50.862;4.696;2023-05-20T03:59:49;11.40;99.90
19870;DHT22;10097;50.862;4.696;2023-05-20T04:02:15;11.60;99.90
19870;DHT22;10097;50.862;4.696;2023-05-20T04:04:41;11.60;99.90
19870;DHT22;10097;50.862;4.696;2023-05-20T04:07:10;11.70;99.90
19870;DHT22;10097;50.862;4.696;2023-05-20T04:09:37;11.80;99.90
19870;DHT22;10097;50.862;4.696;2023-05-20T04:12:03;11.90;99.90
19870;DHT22;10097;50.862;4.696;2023-05-20T04:14:29;11.90;99.90
19870;DHT22;10097;50.862;4.696;2023-05-20T04:16:55;12.00;99.90
19870;DHT22;10097;50.862;4.696;2023-05-20T04:19:21;12.10;99.90
19870;DHT22;10097;50.862;4.696;2023-05-20T04:21:48;12.20;99.90
19870;DHT22;10097;50.862;4.696;2023-05-20T04:24:14;12.20;99.90
19870;DHT22;10097;50.862;4.696;2023-05-20T04:26:39;12.20;99.90
19870;DHT22;10097;50.862;4.696;2023-05-20T04:29:05;12.20;99.90
19870;DHT22;10097;50.862;4.696;2023-05-20T04:31:31;12.30;99.90
19870;DHT22;10097;50.862;4.696;2023-05-20T04:33:57;12.40;99.90
19870;DHT22;10097;50.862;4.696;2023-05-20T04:36:23;12.40;99.90
19870;DHT22;10097;50.862;4.696;2023-05-20T04:38:56;12.60;99.90
19870;DHT22;10097;50.862;4.696;2023-05-20T04:41:22;12.70;99.90
19870;DHT22;10097;50.862;4.696;2023-05-20T04:43:48;12.90;99.90
19870;DHT22;10097;50.862;4.696;2023-05-20T04:46:14;12.90;99.90
19870;DHT22;10097;50.862;4.696;2023-05-20T04:48:41;13.00;99.90
19870;DHT22;10097;50.862;4.696;2023-05-20T04:51:08;13.10;99.90
19870;DHT22;10097;50.862;4.696;2023-05-20T04:53:34;13.10;99.90
19870;DHT22;10097;50.862;4.696;2023-05-20T04:56:00;13.20;99.90
19870;DHT22;10097;50.862;4.696;2023-05-20T04:58:26;13.20;99.90
19870;DHT22;10097;50.862;4.696;2023-05-20T05:00:54;13.20;99.90
19870;DHT22;10097;50.862;4.696;2023-05-20T05:03:20;13.20;99.90
19870;DHT22;10097;50.862;4.696;2023-05-20T05:05:46;13.20;99.90
19870;DHT22;10097;50.862;4.696;2023-05-20T05:08:12;13.20;99.90
19870;DHT22;10097;50.862;4.696;2023-05-20T05:10:38;13.10;99.90
19870;DHT22;10097;50.862;4.696;2023-05-20T05:13:03;13.00;99.90
19870;DHT22;10097;50.862;4.696;2023-05-20T05:15:29;13.00;99.90
19870;DHT22;10097;50.862;4.696;2023-05-20T05:17:55;13.00;99.90
19870;DHT22;10097;50.862;4.696;2023-05-20T05:20:21;13.00;99.90
19870;DHT22;10097;50.862;4.696;2023-05-20T05:22:47;13.10;99.90
19870;DHT22;10097;50.862;4.696;2023-05-20T05:25:17;13.10;99.90
19870;DHT22;10097;50.862;4.696;2023-05-20T05:27:43;13.10;99.90
19870;DHT22;10097;50.862;4.696;2023-05-20T05:30:09;13.20;99.90
19870;DHT22;10097;50.862;4.696;2023-05-20T05:32:36;13.20;99.90
19870;DHT22;10097;50.862;4.696;2023-05-20T05:35:02;13.20;99.90
19870;DHT22;10097;50.862;4.696;2023-05-20T05:37:27;13.20;99.90
19870;DHT22;10097;50.862;4.696;2023-05-20T05:39:53;13.20;99.90
19870;DHT22;10097;50.862;4.696;2023-05-20T05:42:19;13.30;99.90
19870;DHT22;10097;50.862;4.696;2023-05-20T05:44:44;13.30;99.90
19870;DHT22;10097;50.862;4.696;2023-05-20T05:47:10;13.10;99.90
19870;DHT22;10097;50.862;4.696;2023-05-20T05:49:36;13.00;99.90
19870;DHT22;10097;50.862;4.696;2023-05-20T05:52:02;13.20;99.90
19870;DHT22;10097;50.862;4.696;2023-05-20T05:54:27;13.30;99.90
19870;DHT22;10097;50.862;4.696;2023-05-20T05:56:54;13.30;99.90
19870;DHT22;10097;50.862;4.696;2023-05-20T05:59:21;13.20;99.90
19870;DHT22;10097;50.862;4.696;2023-05-20T06:01:46;13.10;99.90
19870;DHT22;10097;50.862;4.696;2023-05-20T06:04:12;13.20;99.90
19870;DHT22;10097;50.862;4.696;2023-05-20T06:06:38;13.20;99.90
19870;DHT22;10097;50.862;4.696;2023-05-20T06:09:04;13.30;99.90
19870;DHT22;10097;50.862;4.696;2023-05-20T06:11:30;13.40;99.90
19870;DHT22;10097;50.862;4.696;2023-05-20T06:13:55;13.40;99.90
19870;DHT22;10097;50.862;4.696;2023-05-20T06:16:21;13.40;99.90
19870;DHT22;10097;50.862;4.696;2023-05-20T06:18:47;13.40;99.90
19870;DHT22;10097;50.862;4.696;2023-05-20T06:21:16;13.60;99.90
19870;DHT22;10097;50.862;4.696;2023-05-20T06:23:42;13.60;99.90
19870;DHT22;10097;50.862;4.696;2023-05-20T06:26:07;13.80;99.90
19870;DHT22;10097;50.862;4.696;2023-05-20T06:28:33;13.80;99.90
19870;DHT22;10097;50.862;4.696;2023-05-20T06:30:59;13.80;99.90
19870;DHT22;10097;50.862;4.696;2023-05-20T06:33:26;13.80;99.90
19870;DHT22;10097;50.862;4.696;2023-05-20T06:35:53;14.00;99.90
19870;DHT22;10097;50.862;4.696;2023-05-20T06:38:19;14.20;99.90
19870;DHT22;10097;50.862;4.696;2023-05-20T06:40:45;14.20;99.90
19870;DHT22;10097;50.862;4.696;2023-05-20T06:43:11;14.20;99.90
19870;DHT22;10097;50.862;4.696;2023-05-20T06:45:37;14.30;99.90
19870;DHT22;10097;50.862;4.696;2023-05-20T06:48:02;14.30;99.90
19870;DHT22;10097;50.862;4.696;2023-05-20T06:50:28;14.30;99.90
19870;DHT22;10097;50.862;4.696;2023-05-20T06:52:54;14.30;99.90
19870;DHT22;10097;50.862;4.696;2023-05-20T06:55:19;14.50;99.90
19870;DHT22;10097;50.862;4.696;2023-05-20T06:57:45;14.50;99.90
19870;DHT22;10097;50.862;4.696;2023-05-20T07:00:11;14.60;99.90
19870;DHT22;10097;50.862;4.696;2023-05-20T07:02:38;14.70;99.90
19870;DHT22;10097;50.862;4.696;2023-05-20T07:05:04;14.90;99.90
19870;DHT22;10097;50.862;4.696;2023-05-20T07:07:30;15.00;99.90
19870;DHT22;10097;50.862;4.696;2023-05-20T07:09:56;15.20;99.90
19870;DHT22;10097;50.862;4.696;2023-05-20T07:12:22;15.20;99.90
19870;DHT22;10097;50.862;4.696;2023-05-20T07:14:48;15.20;99.90
19870;DHT22;10097;50.862;4.696;2023-05-20T07:17:14;15.20;99.90
19870;DHT22;10097;50.862;4.696;2023-05-20T07:19:40;15.30;99.90
19870;DHT22;10097;50.862;4.696;2023-05-20T07:22:05;15.30;99.90
19870;DHT22;10097;50.862;4.696;2023-05-20T07:24:31;15.50;99.90
19870;DHT22;10097;50.862;4.696;2023-05-20T07:26:57;15.60;99.90
19870;DHT22;10097;50.862;4.696;2023-05-20T07:29:23;15.70;99.90
19870;DHT22;10097;50.862;4.696;2023-05-20T07:31:48;15.90;99.90
19870;DHT22;10097;50.862;4.696;2023-05-20T07:34:14;16.10;99.90
19870;DHT22;10097;50.862;4.696;2023-05-20T07:36:40;16.10;99.90
19870;DHT22;10097;50.862;4.696;2023-05-20T07:39:06;16.20;99.90
19870;DHT22;10097;50.862;4.696;2023-05-20T07:41:33;16.20;99.90
19870;DHT22;10097;50.862;4.696;2023-05-20T07:44:00;16.30;99.90
19870;DHT22;10097;50.862;4.696;2023-05-20T07:46:26;16.40;99.90
19870;DHT22;10097;50.862;4.696;2023-05-20T07:48:51;16.60;99.90
19870;DHT22;10097;50.862;4.696;2023-05-20T07:51:17;16.70;99.90
19870;DHT22;10097;50.862;4.696;2023-05-20T07:53:43;16.80;99.90
19870;DHT22;10097;50.862;4.696;2023-05-20T07:56:09;16.90;99.90
19870;DHT22;10097;50.862;4.696;2023-05-20T07:58:34;17.00;99.90
19870;DHT22;10097;50.862;4.696;2023-05-20T08:01:00;17.10;99.90
19870;DHT22;10097;50.862;4.696;2023-05-20T08:03:26;17.20;99.90
19870;DHT22;10097;50.862;4.696;2023-05-20T08:05:52;17.20;99.90
19870;DHT22;10097;50.862;4.696;2023-05-20T08:08:17;17.30;99.90
19870;DHT22;10097;50.862;4.696;2023-05-20T08:10:43;17.40;99.90
19870;DHT22;10097;50.862;4.696;2023-05-20T08:13:09;17.30;99.90
19870;DHT22;10097;50.862;4.696;2023-05-20T08:15:35;17.10;99.90
19870;DHT22;10097;50.862;4.696;2023-05-20T08:18:01;17.10;99.90
19870;DHT22;10097;50.862;4.696;2023-05-20T08:20:28;17.20;99.90
19870;DHT22;10097;50.862;4.696;2023-05-20T08:22:54;17.30;99.90
19870;DHT22;10097;50.862;4.696;2023-05-20T08:25:19;17.40;99.90
19870;DHT22;10097;50.862;4.696;2023-05-20T08:27:45;17.40;99.90
19870;DHT22;10097;50.862;4.696;2023-05-20T08:30:11;17.50;99.90
19870;DHT22;10097;50.862;4.696;2023-05-20T08:32:36;17.60;99.90
19870;DHT22;10097;50.862;4.696;2023-05-20T08:35:03;17.80;99.90
19870;DHT22;10097;50.862;4.696;2023-05-20T08:37:29;17.90;99.90
19870;DHT22;10097;50.862;4.696;2023-05-20T08:39:55;17.90;99.90
19870;DHT22;10097;50.862;4.696;2023-05-20T08:42:22;17.90;99.90
19870;DHT22;10097;50.862;4.696;2023-05-20T08:44:51;17.90;99.90
19870;DHT22;10097;50.862;4.696;2023-05-20T08:47:21;17.90;99.90
19870;DHT22;10097;50.862;4.696;2023-05-20T08:49:50;18.00;99.90
19870;DHT22;10097;50.862;4.696;2023-05-20T08:52:17;18.10;99.90
19870;DHT22;10097;50.862;4.696;2023-05-20T08:54:47;18.20;99.90
19870;DHT22;10097;50.862;4.696;2023-05-20T08:57:14;18.30;99.90
19870;DHT22;10097;50.862;4.696;2023-05-20T08:59:44;18.50;99.90
19870;DHT22;10097;50.862;4.696;2023-05-20T09:02:11;18.40;99.90
19870;DHT22;10097;50.862;4.696;2023-05-20T09:04:37;18.50;99.90
19870;DHT22;10097;50.862;4.696;2023-05-20T09:07:03;18.60;99.90
19870;DHT22;10097;50.862;4.696;2023-05-20T09:09:31;18.80;99.90
19870;DHT22;10097;50.862;4.696;2023-05-20T09:11:59;19.10;99.90
19870;DHT22;10097;50.862;4.696;2023-05-20T09:14:24;19.20;99.90
19870;DHT22;10097;50.862;4.696;2023-05-20T09:16:51;19.30;99.90
19870;DHT22;10097;50.862;4.696;2023-05-20T09:19:20;19.20;99.90
19870;DHT22;10097;50.862;4.696;2023-05-20T09:21:46;19.30;99.90
19870;DHT22;10097;50.862;4.696;2023-05-20T09:24:12;19.40;99.90
19870;DHT22;10097;50.862;4.696;2023-05-20T09:26:38;19.60;99.90
19870;DHT22;10097;50.862;4.696;2023-05-20T09:29:04;19.50;99.90
19870;DHT22;10097;50.862;4.696;2023-05-20T09:31:30;19.40;99.90
19870;DHT22;10097;50.862;4.696;2023-05-20T09:33:59;19.40;99.90
19870;DHT22;10097;50.862;4.696;2023-05-20T09:36:28;19.60;99.90
19870;DHT22;10097;50.862;4.696;2023-05-20T09:38:59;19.60;99.90
19870;DHT22;10097;50.862;4.696;2023-05-20T09:41:33;19.70;99.90
19870;DHT22;10097;50.862;4.696;2023-05-20T09:44:01;19.80;99.90
19870;DHT22;10097;50.862;4.696;2023-05-20T09:46:28;19.90;99.90
19870;DHT22;10097;50.862;4.696;2023-05-20T09:48:54;20.00;99.90
19870;DHT22;10097;50.862;4.696;2023-05-20T09:51:22;20.10;99.90
19870;DHT22;10097;50.862;4.696;2023-05-20T09:53:49;20.30;99.90
19870;DHT22;10097;50.862;4.696;2023-05-20T09:56:18;20.50;99.90
19870;DHT22;10097;50.862;4.696;2023-05-20T09:58:45;20.50;99.90
19870;DHT22;10097;50.862;4.696;2023-05-20T10:01:11;20.50;99.90
19870;DHT22;10097;50.862;4.696;2023-05-20T10:03:37;20.40;99.90
19870;DHT22;10097;50.862;4.696;2023-05-20T10:08:55;20.70;99.90
19870;DHT22;10097;50.862;4.696;2023-05-20T10:16:56;20.80;99.90
19870;DHT22;10097;50.862;4.696;2023-05-20T10:19:30;21.00;99.90
19870;DHT22;10097;50.862;4.696;2023-05-20T10:22:01;21.00;99.90
19870;DHT22;10097;50.862;4.696;2023-05-20T10:24:33;21.20;99.90
19870;DHT22;10097;50.862;4.696;2023-05-20T10:27:01;21.30;99.90
19870;DHT22;10097;50.862;4.696;2023-05-20T10:29:28;21.50;99.90
19870;DHT22;10097;50.862;4.696;2023-05-20T10:31:54;21.60;99.90
19870;DHT22;10097;50.862;4.696;2023-05-20T10:34:21;21.60;99.90
19870;DHT22;10097;50.862;4.696;2023-05-20T10:39:28;21.40;99.90
19870;DHT22;10097;50.862;4.696;2023-05-20T10:42:07;21.60;99.90
19870;DHT22;10097;50.862;4.696;2023-05-20T10:44:44;21.90;99.90
19870;DHT22;10097;50.862;4.696;2023-05-20T10:47:10;22.00;99.90
19870;DHT22;10097;50.862;4.696;2023-05-20T10:49:43;22.00;99.90
19870;DHT22;10097;50.862;4.696;2023-05-20T10:52:09;21.90;99.90
19870;DHT22;10097;50.862;4.696;2023-05-20T10:54:41;22.30;99.90
19870;DHT22;10097;50.862;4.696;2023-05-20T10:57:09;22.60;99.90
19870;DHT22;10097;50.862;4.696;2023-05-20T10:59:36;22.70;99.90
19870;DHT22;10097;50.862;4.696;2023-05-20T11:02:03;22.70;99.90
19870;DHT22;10097;50.862;4.696;2023-05-20T11:04:29;22.50;99.90
19870;DHT22;10097;50.862;4.696;2023-05-20T11:06:56;22.40;99.90
19870;DHT22;10097;50.862;4.696;2023-05-20T11:09:23;22.70;99.90
19870;DHT22;10097;50.862;4.696;2023-05-20T11:11:50;23.10;99.90
19870;DHT22;10097;50.862;4.696;2023-05-20T11:14:16;24.20;99.90
19870;DHT22;10097;50.862;4.696;2023-05-20T11:16:44;24.90;99.90
19870;DHT22;10097;50.862;4.696;2023-05-20T11:19:16;24.60;99.90
19870;DHT22;10097;50.862;4.696;2023-05-20T11:21:44;24.80;99.90
19870;DHT22;10097;50.862;4.696;2023-05-20T11:24:10;25.50;99.90
19870;DHT22;10097;50.862;4.696;2023-05-20T11:26:36;25.70;99.90
19870;DHT22;10097;50.862;4.696;2023-05-20T11:29:02;25.80;99.90
19870;DHT22;10097;50.862;4.696;2023-05-20T11:31:28;26.10;99.90
19870;DHT22;10097;50.862;4.696;2023-05-20T11:33:53;26.30;99.90
19870;DHT22;10097;50.862;4.696;2023-05-20T11:36:19;26.60;99.90
19870;DHT22;10097;50.862;4.696;2023-05-20T11:38:46;27.10;99.90
19870;DHT22;10097;50.862;4.696;2023-05-20T11:41:12;27.00;99.90
19870;DHT22;10097;50.862;4.696;2023-05-20T11:43:38;26.70;99.90
19870;DHT22;10097;50.862;4.696;2023-05-20T11:46:06;26.40;99.90
19870;DHT22;10097;50.862;4.696;2023-05-20T11:48:31;26.30;99.90
19870;DHT22;10097;50.862;4.696;2023-05-20T11:50:57;26.10;99.90
19870;DHT22;10097;50.862;4.696;2023-05-20T11:53:23;25.50;99.90
19870;DHT22;10097;50.862;4.696;2023-05-20T11:55:57;24.90;99.90
19870;DHT22;10097;50.862;4.696;2023-05-20T11:58:24;25.00;99.90
19870;DHT22;10097;50.862;4.696;2023-05-20T12:00:51;25.40;99.90
19870;DHT22;10097;50.862;4.696;2023-05-20T12:03:17;25.40;99.90
19870;DHT22;10097;50.862;4.696;2023-05-20T12:05:43;25.90;99.90
19870;DHT22;10097;50.862;4.696;2023-05-20T12:08:08;26.20;99.90
19870;DHT22;10097;50.862;4.696;2023-05-20T12:10:34;26.30;99.90
19870;DHT22;10097;50.862;4.696;2023-05-20T12:13:02;26.40;99.90
19870;DHT22;10097;50.862;4.696;2023-05-20T12:15:28;26.10;99.90
19870;DHT22;10097;50.862;4.696;2023-05-20T12:17:54;25.60;99.90
19870;DHT22;10097;50.862;4.696;2023-05-20T12:20:22;25.20;99.90
19870;DHT22;10097;50.862;4.696;2023-05-20T12:22:48;25.50;99.90
19870;DHT22;10097;50.862;4.696;2023-05-20T12:25:16;25.80;99.90
19870;DHT22;10097;50.862;4.696;2023-05-20T12:27:43;25.90;99.90
19870;DHT22;10097;50.862;4.696;2023-05-20T12:30:15;26.00;99.90
19870;DHT22;10097;50.862;4.696;2023-05-20T12:32:41;26.00;99.90
19870;DHT22;10097;50.862;4.696;2023-05-20T12:35:08;26.10;99.90
19870;DHT22;10097;50.862;4.696;2023-05-20T12:37:36;26.10;99.90
19870;DHT22;10097;50.862;4.696;2023-05-20T12:40:02;26.00;99.90
19870;DHT22;10097;50.862;4.696;2023-05-20T12:42:36;26.20;99.90
19870;DHT22;10097;50.862;4.696;2023-05-20T12:45:02;26.30;99.90
19870;DHT22;10097;50.862;4.696;2023-05-20T12:47:28;26.30;99.90
19870;DHT22;10097;50.862;4.696;2023-05-20T12:49:54;26.10;99.90
19870;DHT22;10097;50.862;4.696;2023-05-20T12:52:20;26.30;99.90
19870;DHT22;10097;50.862;4.696;2023-05-20T12:54:46;26.00;99.90
19870;DHT22;10097;50.862;4.696;2023-05-20T12:57:11;26.40;99.90
19870;DHT22;10097;50.862;4.696;2023-05-20T12:59:37;26.60;99.90
19870;DHT22;10097;50.862;4.696;2023-05-20T13:02:03;26.90;99.90
19870;DHT22;10097;50.862;4.696;2023-05-20T13:04:28;27.50;99.90
19870;DHT22;10097;50.862;4.696;2023-05-20T13:06:54;26.80;99.90
19870;DHT22;10097;50.862;4.696;2023-05-20T13:09:20;26.60;99.90
19870;DHT22;10097;50.862;4.696;2023-05-20T13:11:46;27.20;99.90
19870;DHT22;10097;50.862;4.696;2023-05-20T13:14:11;28.10;99.90
19870;DHT22;10097;50.862;4.696;2023-05-20T13:16:37;27.50;99.90
19870;DHT22;10097;50.862;4.696;2023-05-20T13:19:03;26.90;99.90
19870;DHT22;10097;50.862;4.696;2023-05-20T13:21:29;26.80;99.90
19870;DHT22;10097;50.862;4.696;2023-05-20T13:23:54;26.50;99.90
19870;DHT22;10097;50.862;4.696;2023-05-20T13:26:20;26.20;99.90
19870;DHT22;10097;50.862;4.696;2023-05-20T13:28:46;25.90;99.90
19870;DHT22;10097;50.862;4.696;2023-05-20T13:31:12;26.30;99.90
19870;DHT22;10097;50.862;4.696;2023-05-20T13:33:37;25.90;99.90
19870;DHT22;10097;50.862;4.696;2023-05-20T13:36:03;25.30;99.90
19870;DHT22;10097;50.862;4.696;2023-05-20T13:38:30;25.10;99.90
19870;DHT22;10097;50.862;4.696;2023-05-20T13:40:56;24.70;99.90
19870;DHT22;10097;50.862;4.696;2023-05-20T13:43:24;24.70;99.90
19870;DHT22;10097;50.862;4.696;2023-05-20T13:45:51;25.10;99.90
19870;DHT22;10097;50.862;4.696;2023-05-20T13:48:17;25.40;99.90
19870;DHT22;10097;50.862;4.696;2023-05-20T13:50:42;25.20;99.90
19870;DHT22;10097;50.862;4.696;2023-05-20T13:53:08;25.20;99.90
19870;DHT22;10097;50.862;4.696;2023-05-20T13:55:38;24.60;99.90
19870;DHT22;10097;50.862;4.696;2023-05-20T13:58:04;24.60;99.90
19870;DHT22;10097;50.862;4.696;2023-05-20T14:00:37;25.00;99.90
19870;DHT22;10097;50.862;4.696;2023-05-20T14:03:04;24.70;99.90
19870;DHT22;10097;50.862;4.696;2023-05-20T14:05:36;24.40;99.90
19870;DHT22;10097;50.862;4.696;2023-05-20T14:08:12;24.30;99.90
19870;DHT22;10097;50.862;4.696;2023-05-20T14:10:38;23.90;99.90
19870;DHT22;10097;50.862;4.696;2023-05-20T14:13:04;23.90;99.90
19870;DHT22;10097;50.862;4.696;2023-05-20T14:15:30;23.80;99.90
19870;DHT22;10097;50.862;4.696;2023-05-20T14:17:56;23.90;99.90
19870;DHT22;10097;50.862;4.696;2023-05-20T14:20:23;24.10;99.90
19870;DHT22;10097;50.862;4.696;2023-05-20T14:22:52;24.10;99.90
19870;DHT22;10097;50.862;4.696;2023-05-20T14:25:20;24.00;99.90
19870;DHT22;10097;50.862;4.696;2023-05-20T14:27:46;23.90;99.90
19870;DHT22;10097;50.862;4.696;2023-05-20T14:30:12;24.00;99.90
19870;DHT22;10097;50.862;4.696;2023-05-20T14:32:38;23.90;99.90
19870;DHT22;10097;50.862;4.696;2023-05-20T14:35:04;23.80;99.90
19870;DHT22;10097;50.862;4.696;2023-05-20T14:37:30;24.00;99.90
19870;DHT22;10097;50.862;4.696;2023-05-20T14:39:55;23.80;99.90
19870;DHT22;10097;50.862;4.696;2023-05-20T14:42:21;23.70;99.90
19870;DHT22;10097;50.862;4.696;2023-05-20T14:44:47;23.50;99.90
19870;DHT22;10097;50.862;4.696;2023-05-20T14:47:12;23.20;99.90
19870;DHT22;10097;50.862;4.696;2023-05-20T14:49:45;23.00;99.90
19870;DHT22;10097;50.862;4.696;2023-05-20T14:52:11;23.10;99.90
19870;DHT22;10097;50.862;4.696;2023-05-20T14:54:37;23.20;99.90
19870;DHT22;10097;50.862;4.696;2023-05-20T14:57:04;23.20;99.90
19870;DHT22;10097;50.862;4.696;2023-05-20T14:59:31;23.30;99.90
19870;DHT22;10097;50.862;4.696;2023-05-20T15:01:56;23.30;99.90
19870;DHT22;10097;50.862;4.696;2023-05-20T15:04:22;23.60;99.90
19870;DHT22;10097;50.862;4.696;2023-05-20T15:06:48;23.70;99.90
19870;DHT22;10097;50.862;4.696;2023-05-20T15:09:14;23.70;99.90
19870;DHT22;10097;50.862;4.696;2023-05-20T15:11:40;23.50;99.90
19870;DHT22;10097;50.862;4.696;2023-05-20T15:14:05;23.30;99.90
19870;DHT22;10097;50.862;4.696;2023-05-20T15:16:31;23.30;99.90
19870;DHT22;10097;50.862;4.696;2023-05-20T15:18:56;23.30;99.90
19870;DHT22;10097;50.862;4.696;2023-05-20T15:21:22;22.90;99.90
19870;DHT22;10097;50.862;4.696;2023-05-20T15:23:48;22.90;99.90
19870;DHT22;10097;50.862;4.696;2023-05-20T15:26:14;23.00;99.90
19870;DHT22;10097;50.862;4.696;2023-05-20T15:28:40;23.30;99.90
19870;DHT22;10097;50.862;4.696;2023-05-20T15:31:06;23.10;99.90
19870;DHT22;10097;50.862;4.696;2023-05-20T15:33:31;23.20;99.90
19870;DHT22;10097;50.862;4.696;2023-05-20T15:35:57;23.10;99.90